Time;durP1;ratioP1;P1;durP2;ratioP2;P2;SDS_P1;SDS_P2;PMS_P1;PMS_P2;Temp;Humidity;BMP_temperature;BMP_pressure;BME280_temperature;BME280_humidity;BME280_pressure;Samples;Min_cycle;Max_cycle;Signal;HPM_P1;HPM_P2
2022/12/24 00:01:30;;;;;;;64.95;47.17;;;;;;;;;;10119969;28;20053;-69
2022/12/24 00:06:23;;;;;;;71.22;45.75;;;;;;;;;;10120012;28;20052;-69
2022/12/24 00:11:17;;;;;;;66.28;44.60;;;;;;;;;;10120197;28;20053;-69
2022/12/24 00:16:11;;;;;;;59.40;44.03;;;;;;;;;;10120365;28;20052;-69
2022/12/24 00:21:06;;;;;;;66.63;47.35;;;;;;;;;;10120728;28;20052;-69
2022/12/24 00:26:00;;;;;;;58.17;44.17;;;;;;;;;;10115576;28;20056;-69
2022/12/24 00:30:54;;;;;;;67.35;45.78;;;;;;;;;;10118130;28;20052;-69
2022/12/24 00:35:51;;;;;;;65.63;46.88;;;;;;;;;;10119364;28;20084;-69
2022/12/24 00:40:44;;;;;;;65.00;46.95;;;;;;;;;;10117893;28;20052;-69
2022/12/24 00:45:38;;;;;;;68.00;46.55;;;;;;;;;;10116189;28;20060;-69
2022/12/24 00:50:33;;;;;;;61.58;45.38;;;;;;;;;;10118532;28;20139;-70
2022/12/24 00:55:27;;;;;;;65.38;44.45;;;;;;;;;;10116264;28;20062;-70
2022/12/24 01:00:21;;;;;;;59.97;45.25;;;;;;;;;;10118014;28;20055;-69
2022/12/24 01:05:19;;;;;;;68.65;48.30;;;;;;;;;;10119428;28;20056;-68
2022/12/24 01:10:14;;;;;;;70.45;45.83;;;;;;;;;;10117832;28;20068;-69
2022/12/24 01:15:09;;;;;;;64.55;45.88;;;;;;;;;;10121616;28;20049;-68
2022/12/24 01:20:05;;;;;;;61.42;43.40;;;;;;;;;;10118827;28;20507;-69
2022/12/24 01:24:59;;;;;;;61.25;46.72;;;;;;;;;;10120128;28;20052;-68
2022/12/24 01:29:52;;;;;;;65.97;48.08;;;;;;;;;;10117570;28;20075;-69
2022/12/24 01:34:46;;;;;;;64.65;45.35;;;;;;;;;;10117036;28;20072;-68
2022/12/24 01:39:40;;;;;;;60.97;45.30;;;;;;;;;;10115116;28;20113;-69
2022/12/24 01:44:38;;;;;;;60.25;41.67;;;;;;;;;;10119925;28;20488;-69
2022/12/24 01:49:32;;;;;;;59.78;40.97;;;;;;;;;;10115357;28;20059;-69
2022/12/24 01:54:33;;;;;;;59.20;42.95;;;;;;;;;;10098533;28;20040;-69
2022/12/24 01:59:27;;;;;;;72.78;50.90;;;;;;;;;;10114654;28;20044;-68
2022/12/24 02:04:46;;;;;;;67.53;45.33;;;;;;;;;;10115268;28;20122;-69
2022/12/24 02:09:40;;;;;;;67.53;46.05;;;;;;;;;;10116539;28;20059;-68
2022/12/24 02:14:33;;;;;;;73.53;50.55;;;;;;;;;;10112302;28;20565;-69
2022/12/24 02:20:03;;;;;;;67.60;48.00;;;;;;;;;;10115442;28;20048;-69
2022/12/24 02:25:19;;;;;;;55.40;40.45;;;;;;;;;;10115465;28;20437;-69
2022/12/24 02:30:32;;;;;;;54.92;38.00;;;;;;;;;;10126282;28;20421;-68
2022/12/24 02:35:36;;;;;;;53.97;39.72;;;;;;;;;;10131512;28;20080;-69
2022/12/24 02:40:40;;;;;;;175.93;96.18;;;;;;;;;;10112301;28;20083;-69
2022/12/24 02:45:34;;;;;;;53.47;38.33;;;;;;;;;;10127889;28;20090;-69
2022/12/24 02:50:28;;;;;;;84.38;53.40;;;;;;;;;;10125206;28;20517;-69
2022/12/24 02:55:41;;;;;;;87.95;54.58;;;;;;;;;;10125492;28;20127;-68
2022/12/24 03:01:15;;;;;;;80.45;49.75;;;;;;;;;;10126428;28;20052;-69
2022/12/24 03:06:27;;;;;;;81.25;55.80;;;;;;;;;;10123502;28;20057;-69
2022/12/24 03:11:40;;;;;;;55.33;38.85;;;;;;;;;;10097265;28;20064;-69
2022/12/24 03:16:51;;;;;;;55.22;40.25;;;;;;;;;;10127376;28;20132;-70
2022/12/24 03:21:45;;;;;;;57.22;39.30;;;;;;;;;;10130333;28;20385;-69
2022/12/24 03:26:39;;;;;;;52.70;40.78;;;;;;;;;;10101295;28;20056;-70
2022/12/24 03:31:43;;;;;;;52.88;39.38;;;;;;;;;;10111206;28;20053;-69
2022/12/24 03:36:38;;;;;;;52.05;38.15;;;;;;;;;;10113761;28;20491;-69
2022/12/24 03:41:31;;;;;;;54.78;37.85;;;;;;;;;;10095838;28;20497;-70
2022/12/24 03:46:25;;;;;;;66.05;45.40;;;;;;;;;;10112365;28;20148;-69
2022/12/24 03:51:20;;;;;;;50.92;37.05;;;;;;;;;;10124291;28;20053;-69
2022/12/24 03:56:15;;;;;;;55.90;38.70;;;;;;;;;;10113744;28;20080;-69
2022/12/24 04:01:08;;;;;;;52.17;38.25;;;;;;;;;;10119599;28;20052;-69
2022/12/24 04:06:29;;;;;;;56.83;37.50;;;;;;;;;;10120936;28;20071;-69
2022/12/24 04:11:23;;;;;;;58.63;37.95;;;;;;;;;;10114779;28;20049;-68
2022/12/24 04:16:17;;;;;;;52.95;38.55;;;;;;;;;;10098040;28;20106;-69
2022/12/24 04:21:11;;;;;;;50.92;36.40;;;;;;;;;;10123608;28;20481;-69
2022/12/24 04:26:06;;;;;;;59.92;41.55;;;;;;;;;;10128653;28;20041;-69
2022/12/24 04:31:01;;;;;;;47.88;35.40;;;;;;;;;;10125481;28;20396;-69
2022/12/24 04:35:59;;;;;;;53.20;37.20;;;;;;;;;;10098406;28;20071;-68
2022/12/24 04:41:06;;;;;;;52.42;37.15;;;;;;;;;;10125045;28;20067;-68
2022/12/24 04:46:09;;;;;;;54.75;37.45;;;;;;;;;;10116335;28;20048;-68
2022/12/24 04:51:07;;;;;;;51.13;36.53;;;;;;;;;;10110264;28;20080;-68
2022/12/24 04:56:01;;;;;;;56.28;37.35;;;;;;;;;;10120489;28;20049;-69
2022/12/24 05:00:53;;;;;;;54.65;38.40;;;;;;;;;;10116875;28;20040;-68
2022/12/24 05:05:47;;;;;;;51.70;35.63;;;;;;;;;;10118114;28;20079;-69
2022/12/24 05:10:41;;;;;;;52.08;39.20;;;;;;;;;;10120618;28;20048;-69
2022/12/24 05:15:34;;;;;;;56.63;37.65;;;;;;;;;;10114323;28;20056;-69
2022/12/24 05:20:28;;;;;;;53.65;38.63;;;;;;;;;;10117523;28;20049;-69
2022/12/24 05:30:33;;;;;;;61.33;40.50;;;;;;;;;;10121347;28;20052;-69
2022/12/24 05:35:26;;;;;;;64.35;44.05;;;;;;;;;;10111142;28;20098;-69
2022/12/24 05:40:20;;;;;;;64.18;41.47;;;;;;;;;;10116744;28;20128;-69
2022/12/24 05:45:15;;;;;;;58.58;40.70;;;;;;;;;;10106689;28;20079;-69
2022/12/24 05:50:11;;;;;;;56.28;38.80;;;;;;;;;;10113107;28;20052;-69
2022/12/24 05:55:06;;;;;;;56.03;39.28;;;;;;;;;;10125123;28;20040;-69
2022/12/24 05:59:59;;;;;;;54.40;41.00;;;;;;;;;;10123000;28;20519;-69
2022/12/24 06:04:53;;;;;;;52.85;40.03;;;;;;;;;;10107583;28;20588;-68
2022/12/24 06:09:46;;;;;;;54.13;41.97;;;;;;;;;;10126125;28;20094;-68
2022/12/24 06:14:41;;;;;;;53.90;42.15;;;;;;;;;;10117246;28;20505;-68
2022/12/24 06:19:34;;;;;;;59.65;41.75;;;;;;;;;;10116024;28;20047;-68
2022/12/24 06:24:29;;;;;;;62.33;41.28;;;;;;;;;;10112742;28;20131;-69
2022/12/24 06:29:23;;;;;;;55.58;39.15;;;;;;;;;;10108695;28;20055;-68
2022/12/24 06:34:19;;;;;;;57.00;39.40;;;;;;;;;;10107708;28;20080;-68
2022/12/24 06:39:13;;;;;;;51.40;39.15;;;;;;;;;;10118532;28;20048;-69
2022/12/24 06:44:07;;;;;;;49.72;37.95;;;;;;;;;;10102071;28;20033;-68
2022/12/24 06:49:01;;;;;;;50.47;37.60;;;;;;;;;;10112580;28;20048;-69
2022/12/24 06:53:56;;;;;;;51.97;38.33;;;;;;;;;;10112232;28;20140;-70
2022/12/24 06:58:49;;;;;;;53.22;36.45;;;;;;;;;;10121470;28;20041;-69
2022/12/24 07:03:43;;;;;;;52.15;37.85;;;;;;;;;;10120829;28;20057;-69
2022/12/24 07:08:36;;;;;;;48.67;37.75;;;;;;;;;;10126765;28;20094;-68
2022/12/24 07:13:31;;;;;;;52.75;38.92;;;;;;;;;;10117472;28;20507;-69
2022/12/24 07:18:26;;;;;;;50.65;38.85;;;;;;;;;;10118333;28;20075;-70
2022/12/24 07:23:19;;;;;;;55.10;41.03;;;;;;;;;;10123963;28;20521;-70
2022/12/24 07:28:13;;;;;;;52.67;36.35;;;;;;;;;;10123262;28;20087;-70
2022/12/24 07:33:07;;;;;;;48.38;36.17;;;;;;;;;;10125237;28;20084;-70
2022/12/24 07:38:01;;;;;;;58.00;41.28;;;;;;;;;;10124532;28;20131;-69
2022/12/24 07:42:55;;;;;;;57.63;40.65;;;;;;;;;;10106746;28;20041;-69
2022/12/24 07:47:49;;;;;;;54.13;39.75;;;;;;;;;;10121365;28;20041;-69
2022/12/24 07:52:43;;;;;;;53.38;41.30;;;;;;;;;;10117179;28;20112;-69
2022/12/24 07:57:37;;;;;;;58.78;41.25;;;;;;;;;;10121809;28;20045;-69
2022/12/24 08:02:31;;;;;;;65.13;44.75;;;;;;;;;;10120914;28;20408;-68
2022/12/24 08:07:26;;;;;;;59.75;45.42;;;;;;;;;;10118744;28;20606;-66
2022/12/24 08:12:20;;;;;;;62.58;42.15;;;;;;;;;;10124424;28;20090;-73
2022/12/24 08:17:14;;;;;;;59.20;44.88;;;;;;;;;;10122165;28;20472;-75
2022/12/24 08:22:08;;;;;;;59.75;41.70;;;;;;;;;;10123243;28;20071;-71
2022/12/24 08:27:02;;;;;;;70.07;44.65;;;;;;;;;;10136767;28;20051;-68
2022/12/24 08:31:56;;;;;;;64.90;46.85;;;;;;;;;;10139299;28;20044;-66
2022/12/24 08:36:50;;;;;;;60.08;45.67;;;;;;;;;;10137244;28;20044;-66
2022/12/24 08:41:44;;;;;;;64.05;45.67;;;;;;;;;;10133753;28;20165;-67
2022/12/24 08:46:38;;;;;;;53.97;43.83;;;;;;;;;;10137029;28;20049;-67
2022/12/24 08:51:32;;;;;;;56.10;43.85;;;;;;;;;;10134002;28;20061;-68
2022/12/24 08:56:25;;;;;;;59.75;44.10;;;;;;;;;;10119598;28;20049;-67
2022/12/24 09:01:19;;;;;;;61.92;43.35;;;;;;;;;;10104124;28;20096;-67
2022/12/24 09:06:15;;;;;;;63.35;46.20;;;;;;;;;;10106168;28;20390;-67
2022/12/24 09:11:16;;;;;;;69.97;50.05;;;;;;;;;;10107098;28;20080;-67
2022/12/24 09:16:10;;;;;;;58.38;44.45;;;;;;;;;;10107981;28;20494;-66
2022/12/24 09:21:06;;;;;;;56.88;42.90;;;;;;;;;;10125474;28;20141;-67
2022/12/24 09:26:04;;;;;;;64.68;50.28;;;;;;;;;;10123319;28;20412;-67
2022/12/24 09:30:59;;;;;;;70.35;53.70;;;;;;;;;;10107361;28;20045;-66
2022/12/24 09:35:53;;;;;;;62.97;46.97;;;;;;;;;;10113097;28;20335;-66
2022/12/24 09:40:48;;;;;;;57.10;44.40;;;;;;;;;;10101496;28;20456;-67
2022/12/24 09:45:47;;;;;;;59.67;47.03;;;;;;;;;;10103930;28;20053;-67
2022/12/24 09:50:53;;;;;;;58.72;45.10;;;;;;;;;;10109941;28;20114;-66
2022/12/24 09:55:49;;;;;;;60.20;43.95;;;;;;;;;;10080536;28;20040;-66
2022/12/24 10:00:43;;;;;;;61.60;46.97;;;;;;;;;;10124114;28;20515;-67
2022/12/24 10:06:05;;;;;;;66.33;48.40;;;;;;;;;;10123411;28;20132;-63
2022/12/24 10:11:05;;;;;;;58.35;45.90;;;;;;;;;;10099556;28;20037;-66
2022/12/24 10:16:26;;;;;;;67.03;47.42;;;;;;;;;;10102184;28;20490;-65
2022/12/24 10:21:38;;;;;;;62.72;47.60;;;;;;;;;;10088905;28;20052;-65
2022/12/24 10:26:43;;;;;;;65.18;47.95;;;;;;;;;;10083857;28;20567;-68
2022/12/24 10:31:52;;;;;;;64.65;50.72;;;;;;;;;;10087922;28;20056;-69
2022/12/24 10:36:45;;;;;;;67.97;49.33;;;;;;;;;;10073197;28;20072;-74
2022/12/24 10:41:39;;;;;;;71.90;52.75;;;;;;;;;;10095552;28;20477;-75
2022/12/24 10:46:36;;;;;;;72.40;49.75;;;;;;;;;;10094929;28;20049;-75
2022/12/24 10:51:36;;;;;;;74.88;50.08;;;;;;;;;;10091012;28;20052;-70
2022/12/24 10:56:29;;;;;;;69.15;50.38;;;;;;;;;;10084842;28;20167;-70
2022/12/24 11:01:42;;;;;;;69.82;52.42;;;;;;;;;;10101327;28;20497;-70
2022/12/24 11:06:54;;;;;;;67.45;48.63;;;;;;;;;;10089729;28;20064;-69
2022/12/24 11:11:48;;;;;;;66.38;50.00;;;;;;;;;;10098090;28;20045;-69
2022/12/24 11:16:48;;;;;;;65.13;46.85;;;;;;;;;;10081688;28;20045;-69
2022/12/24 11:21:43;;;;;;;70.65;51.88;;;;;;;;;;10089693;28;20505;-70
2022/12/24 11:26:36;;;;;;;62.97;47.13;;;;;;;;;;10096166;28;20057;-68
2022/12/24 11:31:31;;;;;;;68.75;48.90;;;;;;;;;;10097806;28;20053;-70
2022/12/24 11:36:26;;;;;;;63.10;46.80;;;;;;;;;;10096697;28;20050;-69
2022/12/24 11:41:20;;;;;;;67.82;48.75;;;;;;;;;;10086006;28;20049;-69
2022/12/24 11:46:17;;;;;;;70.43;50.40;;;;;;;;;;10098972;28;20139;-69
2022/12/24 11:51:24;;;;;;;68.20;49.78;;;;;;;;;;10099382;28;20049;-70
2022/12/24 11:56:40;;;;;;;67.43;48.20;;;;;;;;;;10099703;28;20106;-69
2022/12/24 12:01:54;;;;;;;65.28;48.47;;;;;;;;;;10111391;28;20063;-70
2022/12/24 12:06:50;;;;;;;61.75;46.33;;;;;;;;;;10089945;28;20110;-69
2022/12/24 12:11:44;;;;;;;66.88;50.05;;;;;;;;;;10126854;28;20077;-73
2022/12/24 12:17:13;;;;;;;71.63;49.72;;;;;;;;;;10114509;28;20114;-72
2022/12/24 12:22:35;;;;;;;73.28;49.67;;;;;;;;;;10109788;28;20132;-73
2022/12/24 12:27:54;;;;;;;66.82;49.85;;;;;;;;;;10123580;28;20048;-72
2022/12/24 12:33:16;;;;;;;68.90;50.90;;;;;;;;;;10127505;28;20049;-72
2022/12/24 12:38:18;;;;;;;60.30;47.67;;;;;;;;;;10119057;28;20303;-73
2022/12/24 12:43:50;;;;;;;64.07;46.15;;;;;;;;;;10122117;28;20408;-73
2022/12/24 12:49:09;;;;;;;67.53;48.67;;;;;;;;;;9963474;28;20056;-74
2022/12/24 12:54:28;;;;;;;77.22;55.97;;;;;;;;;;10107362;28;20061;-73
2022/12/24 12:59:32;;;;;;;79.53;53.50;;;;;;;;;;10113931;28;20405;-75
2022/12/24 13:04:44;;;;;;;65.70;48.33;;;;;;;;;;10114724;28;20166;-76
2022/12/24 13:10:05;;;;;;;69.43;46.95;;;;;;;;;;10113549;28;20473;-75
2022/12/24 13:15:23;;;;;;;60.28;44.42;;;;;;;;;;10101427;28;20045;-75
2022/12/24 13:20:25;;;;;;;64.93;47.85;;;;;;;;;;10103350;28;20045;-74
2022/12/24 13:25:32;;;;;;;63.97;45.53;;;;;;;;;;10109175;28;20056;-74
2022/12/24 13:30:33;;;;;;;70.57;46.83;;;;;;;;;;10096510;28;20498;-73
2022/12/24 13:35:30;;;;;;;62.67;45.75;;;;;;;;;;10106662;28;20049;-74
2022/12/24 13:40:36;;;;;;;65.35;49.35;;;;;;;;;;10098382;28;20127;-73
2022/12/24 13:45:32;;;;;;;64.57;46.28;;;;;;;;;;10105559;28;20497;-74
2022/12/24 13:50:34;;;;;;;66.47;46.53;;;;;;;;;;10104282;28;20069;-74
2022/12/24 13:55:28;;;;;;;57.78;42.90;;;;;;;;;;10095193;28;20056;-73
2022/12/24 14:00:21;;;;;;;59.78;43.35;;;;;;;;;;10100212;28;20110;-74
2022/12/24 14:05:31;;;;;;;59.80;46.88;;;;;;;;;;10104703;28;20493;-74
2022/12/24 14:10:42;;;;;;;65.53;45.20;;;;;;;;;;10103374;28;20056;-74
2022/12/24 14:15:47;;;;;;;64.82;48.17;;;;;;;;;;10121204;28;20074;-75
2022/12/24 14:21:00;;;;;;;73.72;50.83;;;;;;;;;;10119643;28;20591;-74
2022/12/24 14:26:16;;;;;;;74.18;51.60;;;;;;;;;;10126871;28;20060;-76
2022/12/24 14:31:14;;;;;;;73.18;49.58;;;;;;;;;;10112760;28;20486;-73
2022/12/24 14:36:46;;;;;;;72.25;51.03;;;;;;;;;;10113137;28;20048;-69
2022/12/24 14:42:15;;;;;;;72.95;51.00;;;;;;;;;;10112583;28;20049;-69
2022/12/24 14:47:24;;;;;;;69.90;51.00;;;;;;;;;;10112605;28;20513;-69
2022/12/24 14:52:34;;;;;;;81.22;55.13;;;;;;;;;;10107664;28;20072;-69
2022/12/24 14:58:17;;;;;;;78.28;54.90;;;;;;;;;;10108200;28;20068;-69
2022/12/24 15:03:31;;;;;;;84.82;56.88;;;;;;;;;;10113216;28;20461;-69
2022/12/24 15:09:04;;;;;;;78.32;54.78;;;;;;;;;;10116698;28;20110;-70
2022/12/24 15:14:04;;;;;;;82.10;56.80;;;;;;;;;;10106344;28;20455;-70
2022/12/24 15:19:02;;;;;;;81.25;57.58;;;;;;;;;;10114949;28;20045;-69
2022/12/24 15:23:56;;;;;;;74.85;55.17;;;;;;;;;;10110715;28;20072;-69
2022/12/24 15:28:51;;;;;;;81.30;53.30;;;;;;;;;;10111103;28;20075;-69
2022/12/24 15:33:56;;;;;;;73.72;55.30;;;;;;;;;;10118515;28;20048;-69
2022/12/24 15:38:58;;;;;;;76.20;57.20;;;;;;;;;;10120238;28;20045;-68
2022/12/24 15:43:53;;;;;;;85.22;57.30;;;;;;;;;;10122342;28;20453;-68
2022/12/24 15:48:47;;;;;;;90.75;61.60;;;;;;;;;;10109245;28;20063;-68
2022/12/24 15:53:42;;;;;;;83.97;56.17;;;;;;;;;;10110263;28;20053;-68
2022/12/24 15:58:41;;;;;;;96.85;63.45;;;;;;;;;;10122038;28;20131;-67
2022/12/24 16:03:36;;;;;;;93.72;62.35;;;;;;;;;;10109209;28;20049;-68
2022/12/24 16:08:34;;;;;;;92.95;60.97;;;;;;;;;;10108760;28;20128;-68
2022/12/24 16:13:29;;;;;;;99.60;62.72;;;;;;;;;;10107731;28;20048;-68
2022/12/24 16:18:42;;;;;;;95.40;60.97;;;;;;;;;;10110549;28;20075;-67
2022/12/24 16:23:45;;;;;;;95.43;63.15;;;;;;;;;;10106124;28;20064;-68
2022/12/24 16:28:39;;;;;;;90.93;62.28;;;;;;;;;;10119011;28;20536;-68
2022/12/24 16:33:33;;;;;;;82.28;58.95;;;;;;;;;;10109097;28;20049;-68
2022/12/24 16:39:21;;;;;;;83.20;61.47;;;;;;;;;;10108418;28;20052;-67
2022/12/24 16:43:49;;;;;;;78.10;59.60;;;;;;;;;;10108815;28;20053;-68
2022/12/24 16:48:46;;;;;;;83.65;61.88;;;;;;;;;;10106884;28;20049;-67
2022/12/24 16:53:40;;;;;;;85.55;63.03;;;;;;;;;;10107817;28;20053;-68
2022/12/24 16:58:34;;;;;;;91.60;66.13;;;;;;;;;;10107706;28;20448;-68
2022/12/24 17:03:28;;;;;;;94.05;64.70;;;;;;;;;;10107307;28;20060;-68
2022/12/24 17:08:22;;;;;;;90.72;64.88;;;;;;;;;;10107092;28;20053;-68
2022/12/24 17:13:17;;;;;;;91.18;66.72;;;;;;;;;;10106883;28;20047;-68
2022/12/24 17:18:10;;;;;;;87.75;61.17;;;;;;;;;;10106283;28;20045;-68
2022/12/24 17:23:04;;;;;;;89.50;64.70;;;;;;;;;;10106677;28;20048;-68
2022/12/24 17:27:58;;;;;;;89.10;65.03;;;;;;;;;;10106047;28;20045;-68
2022/12/24 17:32:52;;;;;;;94.43;64.95;;;;;;;;;;10117268;28;20047;-68
2022/12/24 17:37:45;;;;;;;78.57;60.30;;;;;;;;;;10107287;28;20060;-68
2022/12/24 17:42:40;;;;;;;88.43;64.47;;;;;;;;;;10106336;28;20060;-68
2022/12/24 17:47:34;;;;;;;84.68;59.45;;;;;;;;;;10105733;28;20424;-68
2022/12/24 17:52:27;;;;;;;93.65;60.13;;;;;;;;;;10106137;28;20088;-68
2022/12/24 17:57:20;;;;;;;116.72;77.53;;;;;;;;;;10111964;28;20136;-68
2022/12/24 18:02:15;;;;;;;90.75;60.63;;;;;;;;;;10101517;28;20049;-68
2022/12/24 18:07:09;;;;;;;103.45;67.57;;;;;;;;;;10114716;28;20068;-68
2022/12/24 18:12:02;;;;;;;94.43;64.40;;;;;;;;;;10119893;28;20044;-68
2022/12/24 18:16:56;;;;;;;95.38;66.40;;;;;;;;;;10121685;28;20101;-68
2022/12/24 18:21:50;;;;;;;86.00;60.75;;;;;;;;;;10106094;28;20081;-68
2022/12/24 18:26:47;;;;;;;89.80;61.38;;;;;;;;;;10105403;28;20124;-68
2022/12/24 18:31:57;;;;;;;92.50;62.13;;;;;;;;;;10104113;28;20056;-68
2022/12/24 18:36:51;;;;;;;108.75;68.68;;;;;;;;;;10105211;28;20543;-68
2022/12/24 18:41:48;;;;;;;104.22;67.10;;;;;;;;;;10106126;28;20049;-68
2022/12/24 18:46:42;;;;;;;111.07;69.03;;;;;;;;;;10104775;28;20128;-68
2022/12/24 18:51:36;;;;;;;105.55;70.97;;;;;;;;;;10105282;28;20420;-69
2022/12/24 18:56:30;;;;;;;105.30;64.35;;;;;;;;;;10116066;28;20111;-68
2022/12/24 19:01:28;;;;;;;109.03;72.50;;;;;;;;;;10104680;28;20043;-69
2022/12/24 19:06:23;;;;;;;111.85;67.75;;;;;;;;;;10106767;28;20044;-69
2022/12/24 19:11:17;;;;;;;112.15;70.35;;;;;;;;;;10115926;28;20067;-69
2022/12/24 19:16:11;;;;;;;107.80;66.90;;;;;;;;;;10128677;28;20128;-69
2022/12/24 19:21:06;;;;;;;116.35;68.25;;;;;;;;;;10112219;28;20141;-69
2022/12/24 19:26:00;;;;;;;116.38;71.22;;;;;;;;;;10112113;28;20079;-69
2022/12/24 19:30:53;;;;;;;126.07;74.00;;;;;;;;;;10111790;28;20152;-68
2022/12/24 19:35:47;;;;;;;124.05;78.15;;;;;;;;;;10120080;28;20424;-68
2022/12/24 19:40:42;;;;;;;142.18;82.88;;;;;;;;;;10110976;28;20102;-68
2022/12/24 19:45:35;;;;;;;130.13;77.70;;;;;;;;;;10109919;28;20418;-68
2022/12/24 19:50:28;;;;;;;124.10;72.68;;;;;;;;;;10110182;28;20060;-69
2022/12/24 19:55:23;;;;;;;127.47;72.28;;;;;;;;;;10112804;28;20052;-68
2022/12/24 20:00:18;;;;;;;133.48;71.30;;;;;;;;;;10116105;28;20045;-68
2022/12/24 20:05:12;;;;;;;140.65;81.05;;;;;;;;;;10115132;28;20398;-69
2022/12/24 20:10:08;;;;;;;142.18;74.00;;;;;;;;;;10109261;28;20203;-69
2022/12/24 20:15:02;;;;;;;148.73;80.22;;;;;;;;;;10120098;28;20131;-68
2022/12/24 20:19:56;;;;;;;149.13;79.15;;;;;;;;;;10110360;28;20103;-68
2022/12/24 20:24:50;;;;;;;124.78;69.07;;;;;;;;;;10108031;28;20057;-68
2022/12/24 20:29:44;;;;;;;132.10;75.13;;;;;;;;;;10109391;28;20127;-68
2022/12/24 20:34:40;;;;;;;116.22;70.05;;;;;;;;;;10119149;28;20041;-68
2022/12/24 20:39:33;;;;;;;127.95;71.95;;;;;;;;;;10109536;28;20405;-69
2022/12/24 20:44:27;;;;;;;132.57;73.65;;;;;;;;;;10108981;28;20075;-69
2022/12/24 20:49:21;;;;;;;156.27;78.13;;;;;;;;;;10108415;28;20057;-70
2022/12/24 20:54:16;;;;;;;160.50;83.85;;;;;;;;;;10109925;28;20053;-68
2022/12/24 20:59:10;;;;;;;134.63;79.93;;;;;;;;;;10107777;28;20056;-68
2022/12/24 21:04:06;;;;;;;124.82;74.78;;;;;;;;;;10107823;28;20128;-69
2022/12/24 21:09:02;;;;;;;122.93;73.55;;;;;;;;;;10109446;28;20048;-68
2022/12/24 21:13:55;;;;;;;132.10;78.57;;;;;;;;;;10116041;28;20063;-69
2022/12/24 21:18:49;;;;;;;143.57;74.72;;;;;;;;;;10107451;28;20063;-69
2022/12/24 21:23:42;;;;;;;147.45;78.25;;;;;;;;;;10106380;28;20056;-68
2022/12/24 21:28:36;;;;;;;139.60;74.90;;;;;;;;;;10106828;28;20048;-68
2022/12/24 21:33:31;;;;;;;135.95;72.18;;;;;;;;;;10106378;28;20107;-68
2022/12/24 21:38:30;;;;;;;124.15;73.65;;;;;;;;;;10115585;28;20107;-68
2022/12/24 21:43:25;;;;;;;121.78;69.63;;;;;;;;;;10106187;28;20052;-68
2022/12/24 21:58:44;;;;;;;118.30;69.72;;;;;;;;;;10106636;28;20080;-68
2022/12/24 22:03:38;;;;;;;124.22;72.88;;;;;;;;;;10106637;28;20468;-68
2022/12/24 22:13:44;;;;;;;124.50;74.90;;;;;;;;;;10094014;28;20136;-69
2022/12/24 22:18:38;;;;;;;126.55;74.35;;;;;;;;;;10105908;28;20622;-70
2022/12/24 22:23:32;;;;;;;145.40;85.00;;;;;;;;;;10105340;28;20501;-71
2022/12/24 22:28:34;;;;;;;125.43;70.10;;;;;;;;;;10107762;28;20087;-68
2022/12/24 22:33:29;;;;;;;144.27;88.55;;;;;;;;;;10112508;28;20472;-70
2022/12/24 22:38:25;;;;;;;133.50;74.25;;;;;;;;;;10104950;28;20061;-69
2022/12/24 22:43:21;;;;;;;130.60;76.25;;;;;;;;;;10104634;28;20053;-68
2022/12/24 22:48:15;;;;;;;145.50;80.82;;;;;;;;;;10110384;28;20064;-68
2022/12/24 22:53:09;;;;;;;134.55;77.88;;;;;;;;;;10112474;28;20053;-68
2022/12/24 22:58:03;;;;;;;138.70;74.80;;;;;;;;;;10112075;28;20123;-68
2022/12/24 23:02:57;;;;;;;132.70;74.15;;;;;;;;;;10119993;28;20505;-67
2022/12/24 23:07:52;;;;;;;147.10;75.95;;;;;;;;;;10118035;28;20505;-68
2022/12/24 23:18:05;;;;;;;135.80;75.65;;;;;;;;;;10112272;28;20120;-68
2022/12/24 23:22:59;;;;;;;139.77;73.97;;;;;;;;;;10114505;28;20056;-69
2022/12/24 23:27:52;;;;;;;154.95;77.68;;;;;;;;;;10111003;28;20110;-68
2022/12/24 23:32:46;;;;;;;133.73;72.18;;;;;;;;;;10116387;28;20132;-68
2022/12/24 23:37:41;;;;;;;150.55;76.75;;;;;;;;;;10115732;28;20498;-69
2022/12/24 23:42:35;;;;;;;151.40;79.60;;;;;;;;;;10110440;28;20131;-68
2022/12/24 23:47:29;;;;;;;146.05;76.90;;;;;;;;;;10110453;28;20049;-67
2022/12/24 23:52:23;;;;;;;151.48;78.00;;;;;;;;;;10111217;28;20049;-68
2022/12/24 23:57:16;;;;;;;145.90;77.70;;;;;;;;;;10103638;28;20075;-66
